< < Back
Terminal Aerodrome Forecast


Current Version              Previous Versions:   1  2  3  4  5  6  7  8  9  

Terminal Aerodrome Forecast

745
FTUS42 KFFC 171100
TAFATL
TAF
KATL 171127Z 1712/1818 33008KT P6SM FEW025
     FM171500 33009KT P6SM SCT030
     FM171800 32010KT P6SM SCT045
     FM180100 33005KT P6SM SKC
     FM181500 35007KT P6SM FEW040=

Latest METAR

768
SAUS70 KWBC 171700
MTRATL
METAR KATL 171652Z 29009KT 10SM FEW040 28/17 A2997 RMK AO2 SLP137
T02780172


USA.gov is the U.S. government's official web portal to all federal, state and local government web resources and services.